createdAt,value
2017-08-04T00:02:23.264Z,94.20
2017-08-04T00:04:51.043Z,93.70
2017-08-04T00:07:18.574Z,94.40
2017-08-04T00:09:46.924Z,94.20
2017-08-04T00:12:14.484Z,94.10
2017-08-04T00:14:42.804Z,93.30
2017-08-04T00:17:10.339Z,93.30
2017-08-04T00:19:37.881Z,93.80
2017-08-04T00:22:06.572Z,95.10
2017-08-04T00:24:34.896Z,95.20
2017-08-04T00:27:02.471Z,95.20
2017-08-04T00:29:30.003Z,95.60
2017-08-04T00:31:57.591Z,94.60
2017-08-04T00:34:25.198Z,95.80
2017-08-04T00:36:52.795Z,95.30
2017-08-04T00:39:20.375Z,96.20
2017-08-04T00:41:47.924Z,95.30
2017-08-04T00:44:15.488Z,96.50
2017-08-04T00:46:43.018Z,96.30
2017-08-04T00:49:10.578Z,96.30
2017-08-04T00:51:38.164Z,95.80
2017-08-04T00:54:05.969Z,95.30
2017-08-04T00:56:33.545Z,95.90
2017-08-04T00:59:01.105Z,95.90
2017-08-04T01:01:28.653Z,95.60
2017-08-04T01:03:56.196Z,96.40
2017-08-04T01:06:23.768Z,95.80
2017-08-04T01:08:51.327Z,96.20
2017-08-04T01:11:18.909Z,95.50
2017-08-04T01:13:46.481Z,95.30
2017-08-04T01:16:14.066Z,94.90
2017-08-04T01:18:41.685Z,95.30
2017-08-04T01:21:09.244Z,95.60
2017-08-04T01:23:36.799Z,95.60
2017-08-04T01:26:04.369Z,96.10
2017-08-04T01:28:31.928Z,96.80
2017-08-04T01:30:59.464Z,95.30
2017-08-04T01:33:26.998Z,96.60
2017-08-04T01:35:54.535Z,96.20
2017-08-04T01:38:22.096Z,94.50
2017-08-04T01:40:49.660Z,96.80
2017-08-04T01:43:17.219Z,95.90
2017-08-04T01:45:44.791Z,94.90
2017-08-04T01:48:12.313Z,96.70
2017-08-04T01:50:39.892Z,96.00
2017-08-04T01:53:08.195Z,95.70
2017-08-04T01:55:35.811Z,95.80
2017-08-04T01:58:04.181Z,98.50
2017-08-04T02:00:31.736Z,98.50
2017-08-04T02:02:59.332Z,97.80
2017-08-04T02:05:26.956Z,98.00
2017-08-04T02:07:54.565Z,98.00
2017-08-04T02:10:22.199Z,97.60
2017-08-04T02:12:49.783Z,95.70
2017-08-04T02:15:17.340Z,98.00
2017-08-04T02:17:44.947Z,98.30
2017-08-04T02:20:12.536Z,99.80
2017-08-04T02:22:40.162Z,99.70
2017-08-04T02:25:07.791Z,99.30
2017-08-04T02:27:35.393Z,99.40
2017-08-04T02:30:02.995Z,99.30
2017-08-04T02:32:30.548Z,98.90
2017-08-04T02:34:58.124Z,99.20
2017-08-04T02:37:25.741Z,98.80
2017-08-04T02:39:54.104Z,97.40
2017-08-04T02:42:21.664Z,97.40
2017-08-04T02:44:50.030Z,99.90
2017-08-04T02:47:18.376Z,99.80
2017-08-04T02:49:45.953Z,99.80
2017-08-04T02:52:13.552Z,99.90
2017-08-04T02:54:42.210Z,99.40
2017-08-04T02:57:09.798Z,99.30
2017-08-04T02:59:37.367Z,99.70
2017-08-04T03:02:04.973Z,99.90
2017-08-04T03:04:32.540Z,99.80
2017-08-04T03:07:00.091Z,99.80
2017-08-04T03:09:27.717Z,99.50
2017-08-04T03:11:55.273Z,99.60
2017-08-04T03:14:22.868Z,98.90
2017-08-04T03:16:50.452Z,99.20
2017-08-04T03:19:18.757Z,99.90
2017-08-04T03:21:46.357Z,99.90
2017-08-04T03:24:14.607Z,99.90
2017-08-04T03:26:42.178Z,99.90
2017-08-04T03:29:09.752Z,99.90
2017-08-04T03:31:38.123Z,99.90
2017-08-04T03:34:05.722Z,99.90
2017-08-04T03:36:33.272Z,99.90
2017-08-04T03:39:00.890Z,99.90
2017-08-04T03:41:28.484Z,99.20
2017-08-04T03:43:56.874Z,99.90
2017-08-04T03:46:24.482Z,99.90
2017-08-04T03:48:52.044Z,99.70
2017-08-04T03:51:19.653Z,99.60
2017-08-04T03:53:47.212Z,99.80
2017-08-04T03:56:14.825Z,99.30
2017-08-04T03:58:42.380Z,99.80
2017-08-04T04:01:09.959Z,99.90
2017-08-04T04:03:38.307Z,99.90
2017-08-04T04:06:05.872Z,99.90
2017-08-04T04:08:33.520Z,99.90
2017-08-04T04:11:01.146Z,99.90
2017-08-04T04:13:28.722Z,99.90
2017-08-04T04:15:56.320Z,99.00
2017-08-04T04:18:23.891Z,99.90
2017-08-04T04:20:52.368Z,98.70
2017-08-04T04:23:19.973Z,98.60
2017-08-04T04:25:47.603Z,99.80
2017-08-04T04:28:15.989Z,99.90
2017-08-04T04:30:43.549Z,99.90
2017-08-04T04:33:11.128Z,99.90
2017-08-04T04:35:38.705Z,99.90
2017-08-04T04:38:06.277Z,99.90
2017-08-04T04:40:33.920Z,99.90
2017-08-04T04:43:01.506Z,98.60
2017-08-04T04:45:29.137Z,99.40
2017-08-04T04:47:56.770Z,99.60
2017-08-04T04:50:24.364Z,99.80
2017-08-04T04:52:52.032Z,99.90
2017-08-04T04:55:20.304Z,99.90
2017-08-04T04:57:47.923Z,99.90
2017-08-04T05:00:15.552Z,99.00
2017-08-04T05:02:43.140Z,99.90
2017-08-04T05:05:10.782Z,99.90
2017-08-04T05:07:38.388Z,99.90
2017-08-04T05:10:05.935Z,99.90
2017-08-04T05:12:33.541Z,99.90
2017-08-04T05:15:01.196Z,99.40
2017-08-04T05:17:28.804Z,99.90
2017-08-04T05:19:56.431Z,99.90
2017-08-04T05:22:24.036Z,99.90
2017-08-04T05:24:52.487Z,99.90
2017-08-04T05:27:20.053Z,99.90
2017-08-04T05:29:47.638Z,99.90
2017-08-04T05:32:15.211Z,99.90
2017-08-04T05:34:42.869Z,99.90
2017-08-04T05:37:10.437Z,99.90
2017-08-04T05:39:38.069Z,99.50
2017-08-04T05:42:05.640Z,99.90
2017-08-04T05:44:33.232Z,99.90
2017-08-04T05:47:01.612Z,99.90
2017-08-04T05:49:29.948Z,99.90
2017-08-04T05:51:57.500Z,99.90
2017-08-04T05:54:25.082Z,99.90
2017-08-04T05:56:52.637Z,99.90
2017-08-04T05:59:20.189Z,99.90
2017-08-04T06:01:47.808Z,99.90
2017-08-04T06:04:15.415Z,99.90
2017-08-04T06:06:42.990Z,99.80
2017-08-04T06:09:11.384Z,99.10
2017-08-04T06:11:38.976Z,99.00
2017-08-04T06:14:06.512Z,99.00
2017-08-04T06:16:34.087Z,98.60
2017-08-04T06:19:01.745Z,98.60
2017-08-04T06:21:29.318Z,99.80
2017-08-04T06:23:56.903Z,98.80
2017-08-04T06:26:24.485Z,98.50
2017-08-04T06:28:52.060Z,98.60
2017-08-04T06:31:19.644Z,99.20
2017-08-04T06:33:47.256Z,98.60
2017-08-04T06:36:15.573Z,98.30
2017-08-04T06:38:43.871Z,98.70
2017-08-04T06:41:11.665Z,98.70
2017-08-04T06:43:39.220Z,98.50
2017-08-04T06:46:06.831Z,98.70
2017-08-04T06:48:46.176Z,97.70
2017-08-04T06:51:40.295Z,97.30
2017-08-04T06:54:28.618Z,97.70
2017-08-04T06:56:56.193Z,98.00
2017-08-04T06:59:23.750Z,96.70
2017-08-04T07:01:52.085Z,97.50
2017-08-04T07:04:19.671Z,97.40
2017-08-04T07:06:47.317Z,96.60
2017-08-04T07:09:14.889Z,96.70
2017-08-04T07:11:42.433Z,96.20
2017-08-04T07:14:10.037Z,96.10
2017-08-04T07:16:38.012Z,96.30
2017-08-04T07:19:06.392Z,96.10
2017-08-04T07:21:34.735Z,96.10
2017-08-04T07:24:02.297Z,96.10
2017-08-04T07:26:29.918Z,95.80
2017-08-04T07:28:57.466Z,95.60
2017-08-04T07:31:25.035Z,95.60
2017-08-04T07:33:52.691Z,94.70
2017-08-04T07:36:20.269Z,96.20
2017-08-04T07:38:47.857Z,95.30
2017-08-04T07:41:15.412Z,94.90
2017-08-04T07:43:43.027Z,94.30
2017-08-04T07:46:10.641Z,94.40
2017-08-04T07:48:38.226Z,95.50
2017-08-04T07:51:05.815Z,94.10
2017-08-04T07:53:33.366Z,93.60
2017-08-04T07:56:00.963Z,94.90
2017-08-04T07:58:29.244Z,93.70
2017-08-04T08:00:56.907Z,95.20
2017-08-04T08:03:25.270Z,92.10
2017-08-04T08:05:52.860Z,92.10
2017-08-04T08:08:20.424Z,92.40
2017-08-04T08:10:48.032Z,93.70
2017-08-04T08:13:15.600Z,93.20
2017-08-04T08:15:43.154Z,92.70
2017-08-04T08:18:10.743Z,92.60
2017-08-04T08:20:39.090Z,90.10
2017-08-04T08:23:06.677Z,90.10
2017-08-04T08:25:34.277Z,90.80
2017-08-04T08:28:01.920Z,90.50
2017-08-04T08:30:29.509Z,91.10
2017-08-04T08:32:57.056Z,92.20
2017-08-04T08:35:24.674Z,90.00
2017-08-04T08:37:52.235Z,84.50
2017-08-04T08:40:19.829Z,82.50
2017-08-04T08:42:47.464Z,82.60
2017-08-04T08:45:15.593Z,80.70
2017-08-04T08:47:43.188Z,81.30
2017-08-04T08:50:10.770Z,82.10
2017-08-04T08:52:38.402Z,79.00
2017-08-04T08:55:06.004Z,81.70
2017-08-04T08:57:33.565Z,78.60
2017-08-04T09:00:01.135Z,77.40
2017-08-04T09:02:28.784Z,77.50
2017-08-04T09:04:56.325Z,79.40
2017-08-04T09:07:23.923Z,79.30
2017-08-04T09:09:51.517Z,78.80
2017-08-04T09:12:19.127Z,76.60
2017-08-04T09:14:46.668Z,79.90
2017-08-04T09:17:14.209Z,82.70
2017-08-04T09:19:41.783Z,79.10
2017-08-04T09:22:09.324Z,77.40
2017-08-04T09:24:36.917Z,76.80
2017-08-04T09:27:04.485Z,79.80
2017-08-04T09:29:32.049Z,79.60
2017-08-04T09:31:59.621Z,80.50
2017-08-04T09:34:27.252Z,81.30
2017-08-04T09:36:54.840Z,80.70
2017-08-04T09:39:22.425Z,80.20
2017-08-04T09:41:50.024Z,80.00
2017-08-04T09:44:17.597Z,78.50
2017-08-04T09:46:45.206Z,79.70
2017-08-04T09:49:12.805Z,81.00
2017-08-04T09:51:40.372Z,78.10
2017-08-04T09:54:07.970Z,77.50
2017-08-04T09:56:35.569Z,77.10
2017-08-04T09:59:03.185Z,76.20
2017-08-04T10:01:30.752Z,75.10
2017-08-04T10:03:58.372Z,77.10
2017-08-04T10:06:26.738Z,75.20
2017-08-04T10:08:54.307Z,75.00
2017-08-04T10:11:21.923Z,76.50
2017-08-04T10:13:49.530Z,77.80
2017-08-04T10:16:17.108Z,77.80
2017-08-04T10:18:44.740Z,78.70
2017-08-04T10:21:12.296Z,77.50
2017-08-04T10:23:39.835Z,77.60
2017-08-04T10:26:09.783Z,78.60
2017-08-04T10:28:37.400Z,77.70
2017-08-04T10:31:05.774Z,78.40
2017-08-04T10:33:34.178Z,78.40
2017-08-04T10:36:01.776Z,78.40
2017-08-04T10:38:29.361Z,78.30
2017-08-04T10:40:57.041Z,78.60
2017-08-04T10:43:25.243Z,75.50
2017-08-04T10:45:58.503Z,72.40
2017-08-04T10:48:26.177Z,74.40
2017-08-04T10:50:53.757Z,73.40
2017-08-04T10:53:22.211Z,72.60
2017-08-04T10:55:49.806Z,68.20
2017-08-04T10:58:18.143Z,67.60
2017-08-04T11:00:45.756Z,67.60
2017-08-04T11:03:13.337Z,68.20
2017-08-04T11:05:40.969Z,67.20
2017-08-04T11:08:08.534Z,67.60
2017-08-04T11:10:36.100Z,70.90
2017-08-04T11:13:03.700Z,70.20
2017-08-04T11:15:31.253Z,70.80
2017-08-04T11:17:58.816Z,71.00
2017-08-04T11:20:26.408Z,72.20
2017-08-04T11:22:54.720Z,71.30
2017-08-04T11:25:22.325Z,71.20
2017-08-04T11:27:50.651Z,71.30
2017-08-04T11:30:18.241Z,71.20
2017-08-04T11:32:45.842Z,72.40
2017-08-04T11:35:13.418Z,71.10
2017-08-04T11:37:41.022Z,72.80
2017-08-04T11:40:08.605Z,74.60
2017-08-04T11:42:37.451Z,72.10
2017-08-04T11:45:05.068Z,72.00
2017-08-04T11:47:32.942Z,71.80
2017-08-04T11:50:00.538Z,70.00
2017-08-04T11:52:28.152Z,69.00
2017-08-04T11:54:55.693Z,69.20
2017-08-04T11:57:23.318Z,67.30
2017-08-04T11:59:50.869Z,70.60
2017-08-04T12:02:18.435Z,69.10
2017-08-04T12:04:46.048Z,70.20
2017-08-04T12:07:14.338Z,66.80
2017-08-04T12:09:42.102Z,66.80
2017-08-04T12:12:09.712Z,66.00
2017-08-04T12:14:37.565Z,65.40
2017-08-04T12:17:05.076Z,68.80
2017-08-04T12:19:32.664Z,69.10
2017-08-04T12:22:00.219Z,67.10
2017-08-04T12:24:27.744Z,68.00
2017-08-04T12:26:55.337Z,68.70
2017-08-04T12:29:22.851Z,69.20
2017-08-04T12:31:50.368Z,67.50
2017-08-04T12:34:18.056Z,69.20
2017-08-04T12:36:45.583Z,68.10
2017-08-04T12:39:13.101Z,69.50
2017-08-04T12:41:40.674Z,71.00
2017-08-04T12:44:08.188Z,68.30
2017-08-04T12:46:35.704Z,67.80
2017-08-04T12:49:03.279Z,66.30
2017-08-04T12:51:30.804Z,67.60
2017-08-04T12:53:58.377Z,68.10
2017-08-04T12:56:25.900Z,68.10
2017-08-04T12:58:53.413Z,68.80
2017-08-04T13:01:20.989Z,65.10
2017-08-04T13:03:49.294Z,65.00
2017-08-04T13:06:16.823Z,65.40
2017-08-04T13:08:44.392Z,67.40
2017-08-04T13:11:12.684Z,68.00
2017-08-04T13:13:40.245Z,67.90
2017-08-04T13:16:07.768Z,70.50
2017-08-04T13:18:35.294Z,70.10
2017-08-04T13:21:02.857Z,66.40
2017-08-04T13:23:30.436Z,69.00
2017-08-04T13:25:58.003Z,68.00
2017-08-04T13:28:26.299Z,67.40
2017-08-04T13:30:53.820Z,67.40
2017-08-04T13:33:21.381Z,67.80
2017-08-04T13:35:48.925Z,68.00
2017-08-04T13:38:22.110Z,69.80
2017-08-04T13:40:49.661Z,69.00
2017-08-04T13:43:17.240Z,68.40
2017-08-04T13:45:44.781Z,70.40
2017-08-04T13:48:12.328Z,69.00
2017-08-04T13:50:39.877Z,69.40
2017-08-04T13:53:07.452Z,68.60
2017-08-04T13:55:34.976Z,69.00
2017-08-04T13:58:02.497Z,68.90
2017-08-04T14:00:30.835Z,70.00
2017-08-04T14:02:58.383Z,69.90
2017-08-04T14:05:25.896Z,70.40
2017-08-04T14:07:53.455Z,68.80
2017-08-04T14:10:21.775Z,69.80
2017-08-04T14:12:49.443Z,69.80
2017-08-04T14:15:16.972Z,70.60
2017-08-04T14:17:44.506Z,69.60
2017-08-04T14:20:12.844Z,71.40
2017-08-04T14:22:40.363Z,71.20
2017-08-04T14:25:07.952Z,69.90
2017-08-04T14:27:35.478Z,69.20
2017-08-04T14:30:02.988Z,70.30
2017-08-04T14:32:30.559Z,70.00
2017-08-04T14:34:58.903Z,71.90
2017-08-04T14:37:26.415Z,71.80
2017-08-04T14:39:53.933Z,68.90
2017-08-04T14:42:21.481Z,70.30
2017-08-04T14:44:49.090Z,71.10
2017-08-04T14:47:16.636Z,71.50
2017-08-04T14:49:44.951Z,70.40
2017-08-04T14:52:12.522Z,70.30
2017-08-04T14:54:40.037Z,70.10
2017-08-04T14:57:07.581Z,71.80
2017-08-04T14:59:35.928Z,69.80
2017-08-04T15:02:03.459Z,69.60
2017-08-04T15:04:31.001Z,69.30
2017-08-04T15:06:58.561Z,70.20
2017-08-04T15:09:26.153Z,72.20
2017-08-04T15:11:54.400Z,71.70
2017-08-04T15:14:21.925Z,72.20
2017-08-04T15:16:49.493Z,71.00
2017-08-04T15:19:17.058Z,71.80
2017-08-04T15:21:44.572Z,71.80
2017-08-04T15:24:12.128Z,70.90
2017-08-04T15:26:40.469Z,73.00
2017-08-04T15:29:07.981Z,72.60
2017-08-04T15:31:35.552Z,70.10
2017-08-04T15:34:03.087Z,70.60
2017-08-04T15:36:31.428Z,71.60
2017-08-04T15:38:58.996Z,71.60
2017-08-04T15:41:26.512Z,74.80
2017-08-04T15:43:54.024Z,71.60
2017-08-04T15:46:21.599Z,71.40
2017-08-04T15:48:49.116Z,71.90
2017-08-04T15:51:16.640Z,73.90
2017-08-04T15:53:44.195Z,71.90
2017-08-04T15:56:11.722Z,70.50
2017-08-04T15:58:39.301Z,70.70
2017-08-04T16:01:06.811Z,72.00
2017-08-04T16:03:34.327Z,70.80
2017-08-04T16:06:01.894Z,70.60
2017-08-04T16:08:29.459Z,70.10
2017-08-04T16:10:56.992Z,71.70
2017-08-04T16:13:24.513Z,70.00
2017-08-04T16:15:52.112Z,72.10
2017-08-04T16:18:19.623Z,70.70
2017-08-04T16:20:47.139Z,71.40
2017-08-04T16:23:14.681Z,70.00
2017-08-04T16:25:42.200Z,71.00
2017-08-04T16:28:09.781Z,71.40
2017-08-04T16:30:37.304Z,71.10
2017-08-04T16:33:04.820Z,70.50
2017-08-04T16:35:32.370Z,71.20
2017-08-04T16:37:59.900Z,71.60
2017-08-04T16:40:27.464Z,73.30
2017-08-04T16:42:55.428Z,71.80
2017-08-04T16:45:22.949Z,72.90
2017-08-04T16:47:50.508Z,73.10
2017-08-04T16:50:18.023Z,73.10
2017-08-04T16:52:45.539Z,71.30
2017-08-04T16:55:13.089Z,73.00
2017-08-04T16:57:40.673Z,73.70
2017-08-04T17:00:08.196Z,71.00
2017-08-04T17:02:35.720Z,71.30
2017-08-04T17:05:03.257Z,70.40
2017-08-04T17:07:30.820Z,71.40
2017-08-04T17:09:58.448Z,70.60
2017-08-04T17:12:25.968Z,73.90
2017-08-04T17:14:53.527Z,75.20
2017-08-04T17:17:21.035Z,72.50
2017-08-04T17:19:48.607Z,72.60
2017-08-04T17:22:16.884Z,73.20
2017-08-04T17:24:44.395Z,73.10
2017-08-04T17:27:11.995Z,73.50
2017-08-04T17:29:39.508Z,74.60
2017-08-04T17:32:07.019Z,74.20
2017-08-04T17:34:34.572Z,73.30
2017-08-04T17:37:02.161Z,75.60
2017-08-04T17:39:29.676Z,76.90
2017-08-04T17:41:57.201Z,78.00
2017-08-04T17:44:24.740Z,78.80
2017-08-04T17:46:52.340Z,80.70
2017-08-04T17:49:19.873Z,80.70
2017-08-04T17:51:47.462Z,80.40
2017-08-04T17:54:15.049Z,80.90
2017-08-04T17:56:42.635Z,81.70
2017-08-04T17:59:10.702Z,82.50
2017-08-04T18:01:38.224Z,82.50
2017-08-04T18:04:05.769Z,80.60
2017-08-04T18:06:33.296Z,81.00
2017-08-04T18:09:01.829Z,78.90
2017-08-04T18:11:29.347Z,77.10
2017-08-04T18:13:56.935Z,76.00
2017-08-04T18:16:24.468Z,77.20
2017-08-04T18:18:52.025Z,76.30
2017-08-04T18:21:19.653Z,76.60
2017-08-04T18:23:47.162Z,77.40
2017-08-04T18:26:14.675Z,78.20
2017-08-04T18:28:42.231Z,75.90
2017-08-04T18:31:09.795Z,75.10
2017-08-04T18:33:37.345Z,76.20
2017-08-04T18:36:04.879Z,76.80
2017-08-04T18:38:32.435Z,76.80
2017-08-04T18:41:00.038Z,77.10
2017-08-04T18:43:27.591Z,77.60
2017-08-04T18:45:55.120Z,78.70
2017-08-04T18:48:22.640Z,79.60
2017-08-04T18:50:50.199Z,79.70
2017-08-04T18:53:17.716Z,79.90
2017-08-04T18:55:45.277Z,79.80
2017-08-04T18:58:12.836Z,80.30
2017-08-04T19:00:40.356Z,80.80
2017-08-04T19:03:07.961Z,81.20
2017-08-04T19:05:35.526Z,81.50
2017-08-04T19:08:03.064Z,82.30
2017-08-04T19:10:30.622Z,83.20
2017-08-04T19:12:58.146Z,84.10
2017-08-04T19:15:25.703Z,84.50
2017-08-04T19:17:53.220Z,84.30
2017-08-04T19:20:21.505Z,84.80
2017-08-04T19:22:49.065Z,84.70
2017-08-04T19:25:16.612Z,83.20
2017-08-04T19:27:44.200Z,84.00
2017-08-04T19:30:11.718Z,84.80
2017-08-04T19:32:39.228Z,85.00
2017-08-04T19:35:06.768Z,81.60
2017-08-04T19:37:34.308Z,81.20
2017-08-04T19:40:01.857Z,81.20
2017-08-04T19:42:29.368Z,82.30
2017-08-04T19:44:56.963Z,82.60
2017-08-04T19:47:24.482Z,81.90
2017-08-04T19:49:52.041Z,83.00
2017-08-04T19:52:19.587Z,82.60
2017-08-04T19:54:47.121Z,82.50
2017-08-04T19:57:14.676Z,82.60
2017-08-04T19:59:42.204Z,81.00
2017-08-04T20:02:09.826Z,81.40
2017-08-04T20:04:37.366Z,81.00
2017-08-04T20:07:04.924Z,82.40
2017-08-04T20:09:32.514Z,83.90
2017-08-04T20:12:00.016Z,83.30
2017-08-04T20:14:27.551Z,82.80
2017-08-04T20:16:55.940Z,83.20
2017-08-04T20:19:23.455Z,82.40
2017-08-04T20:21:50.965Z,82.20
2017-08-04T20:24:18.521Z,83.10
2017-08-04T20:26:46.083Z,83.30
2017-08-04T20:29:13.782Z,82.40
2017-08-04T20:31:41.442Z,83.90
2017-08-04T20:34:09.132Z,83.30
2017-08-04T20:36:36.761Z,83.80
2017-08-04T20:39:04.431Z,84.30
2017-08-04T20:41:32.088Z,84.70
2017-08-04T20:43:59.665Z,84.30
2017-08-04T20:46:27.222Z,84.70
2017-08-04T20:48:54.800Z,86.40
2017-08-04T20:51:22.417Z,86.60
2017-08-04T20:53:49.972Z,86.90
2017-08-04T20:56:17.601Z,86.20
2017-08-04T20:58:45.184Z,87.00
2017-08-04T21:01:12.752Z,88.50
2017-08-04T21:03:40.283Z,88.30
2017-08-04T21:06:07.864Z,88.90
2017-08-04T21:08:35.380Z,89.50
2017-08-04T21:11:03.804Z,88.90
2017-08-04T21:13:31.369Z,88.40
2017-08-04T21:15:58.880Z,88.90
2017-08-04T21:18:26.383Z,89.40
2017-08-04T21:20:53.947Z,88.40
2017-08-04T21:23:21.455Z,90.20
2017-08-04T21:25:48.981Z,89.30
2017-08-04T21:28:16.542Z,88.50
2017-08-04T21:30:44.820Z,89.80
2017-08-04T21:33:12.360Z,89.70
2017-08-04T21:35:39.922Z,90.20
2017-08-04T21:38:07.455Z,90.60
2017-08-04T21:40:35.006Z,90.40
2017-08-04T21:43:02.526Z,90.60
2017-08-04T21:45:30.063Z,90.40
2017-08-04T21:47:57.589Z,88.40
2017-08-04T21:50:25.148Z,87.50
2017-08-04T21:52:52.682Z,88.40
2017-08-04T21:55:20.193Z,90.10
2017-08-04T21:57:47.746Z,90.00
2017-08-04T22:00:16.024Z,90.20
2017-08-04T22:02:43.603Z,90.20
2017-08-04T22:05:11.120Z,90.70
2017-08-04T22:07:38.655Z,90.10
2017-08-04T22:10:06.203Z,90.70
2017-08-04T22:12:33.776Z,90.60
2017-08-04T22:15:01.320Z,90.90
2017-08-04T22:17:28.836Z,90.50
2017-08-04T22:19:56.400Z,90.50
2017-08-04T22:22:23.916Z,90.50
2017-08-04T22:24:51.460Z,90.70
2017-08-04T22:27:18.979Z,90.70
2017-08-04T22:29:46.509Z,90.50
2017-08-04T22:32:14.026Z,90.30
2017-08-04T22:34:41.600Z,90.10
2017-08-04T22:37:09.156Z,88.20
2017-08-04T22:39:36.680Z,89.90
2017-08-04T22:42:04.235Z,88.30
2017-08-04T22:44:31.749Z,89.70
2017-08-04T22:46:59.260Z,88.20
2017-08-04T22:49:26.832Z,89.10
2017-08-04T22:51:54.349Z,88.60
2017-08-04T22:54:21.880Z,88.40
2017-08-04T22:56:49.410Z,89.20
2017-08-04T22:59:16.919Z,89.40
2017-08-04T23:01:44.471Z,88.90
2017-08-04T23:04:12.752Z,87.40
2017-08-04T23:06:40.256Z,87.30
2017-08-04T23:09:07.844Z,88.10
2017-08-04T23:11:35.408Z,88.40
2017-08-04T23:14:03.697Z,88.70
2017-08-04T23:16:31.215Z,88.70
2017-08-04T23:18:58.769Z,88.00
2017-08-04T23:21:26.350Z,86.80
2017-08-04T23:23:53.866Z,86.00
2017-08-04T23:26:21.392Z,86.30
2017-08-04T23:28:48.939Z,86.10
2017-08-04T23:31:16.462Z,87.40
2017-08-04T23:33:44.011Z,86.90
2017-08-04T23:36:11.529Z,87.00
2017-08-04T23:38:39.088Z,87.30
2017-08-04T23:41:06.612Z,87.90
2017-08-04T23:43:34.184Z,87.30
2017-08-04T23:46:01.721Z,87.60
2017-08-04T23:48:29.236Z,86.80
2017-08-04T23:50:56.785Z,86.80
2017-08-04T23:53:24.295Z,86.60
2017-08-04T23:55:51.856Z,87.30
2017-08-04T23:58:20.139Z,86.60
